South Main, California
Current Conditions -  °F | °C
As of 4:53 PM on Saturday 20 Dec 2014 (Local Time) from KSNA Reporting Station
Overcast Overcast  
Wind Chill: 63°   Ceiling: 2800
Heat Index: 63°   Visibility: 9mi
Dew Point: 54°   Wind: 5mph
Humidity: 72%   Direction: 200°SSW
Pressure: 30.13"   Gusts: NA
Location:  33.7155°N, 117.871°W
Report Text: KSNA 210053Z 20004KT 9SM BKN028 OVC250 17/12 A3013 RMK AO2 SLP204 T01720122
Loading
Personal Weather Stations






























Interactive Weather Map New forecast layout! Learn more

10-Day Weather Forecast

Advertisements
Track Severe Weather on mobile